sensor_id;sensor_type;location;lat;lon;timestamp;P1;durP1;ratioP1;P2;durP2;ratioP2
27505;SDS011;14939;43.596;1.320;2024-02-14T00:01:34;77.63;;;47.25;;
27505;SDS011;14939;43.596;1.320;2024-02-14T00:04:01;94.90;;;51.58;;
27505;SDS011;14939;43.596;1.320;2024-02-14T00:06:28;120.28;;;58.28;;
27505;SDS011;14939;43.596;1.320;2024-02-14T00:08:53;87.57;;;51.05;;
27505;SDS011;14939;43.596;1.320;2024-02-14T00:11:19;80.50;;;49.08;;
27505;SDS011;14939;43.596;1.320;2024-02-14T00:13:44;73.60;;;45.83;;
27505;SDS011;14939;43.596;1.320;2024-02-14T00:16:10;71.43;;;45.65;;
27505;SDS011;14939;43.596;1.320;2024-02-14T00:18:36;69.85;;;44.33;;
27505;SDS011;14939;43.596;1.320;2024-02-14T00:21:01;71.03;;;44.33;;
27505;SDS011;14939;43.596;1.320;2024-02-14T00:23:27;65.68;;;43.50;;
27505;SDS011;14939;43.596;1.320;2024-02-14T00:25:53;64.38;;;41.10;;
27505;SDS011;14939;43.596;1.320;2024-02-14T00:28:18;54.50;;;38.63;;
27505;SDS011;14939;43.596;1.320;2024-02-14T00:30:44;55.70;;;39.05;;
27505;SDS011;14939;43.596;1.320;2024-02-14T00:33:10;56.38;;;38.85;;
27505;SDS011;14939;43.596;1.320;2024-02-14T00:35:36;51.22;;;36.15;;
27505;SDS011;14939;43.596;1.320;2024-02-14T00:38:01;56.00;;;38.33;;
27505;SDS011;14939;43.596;1.320;2024-02-14T00:40:27;52.92;;;38.45;;
27505;SDS011;14939;43.596;1.320;2024-02-14T00:42:53;53.70;;;37.15;;
27505;SDS011;14939;43.596;1.320;2024-02-14T00:45:18;47.38;;;34.35;;
27505;SDS011;14939;43.596;1.320;2024-02-14T00:47:44;44.30;;;31.85;;
27505;SDS011;14939;43.596;1.320;2024-02-14T00:50:10;44.58;;;31.42;;
27505;SDS011;14939;43.596;1.320;2024-02-14T00:52:35;43.22;;;30.05;;
27505;SDS011;14939;43.596;1.320;2024-02-14T00:55:01;42.08;;;29.48;;
27505;SDS011;14939;43.596;1.320;2024-02-14T00:57:28;43.97;;;30.83;;
27505;SDS011;14939;43.596;1.320;2024-02-14T00:59:54;39.60;;;29.05;;
27505;SDS011;14939;43.596;1.320;2024-02-14T01:02:21;42.60;;;30.23;;
27505;SDS011;14939;43.596;1.320;2024-02-14T01:04:47;42.75;;;31.05;;
27505;SDS011;14939;43.596;1.320;2024-02-14T01:07:13;44.63;;;30.92;;
27505;SDS011;14939;43.596;1.320;2024-02-14T01:09:38;44.92;;;32.28;;
27505;SDS011;14939;43.596;1.320;2024-02-14T01:12:04;48.78;;;33.10;;
27505;SDS011;14939;43.596;1.320;2024-02-14T01:14:30;51.25;;;34.50;;
27505;SDS011;14939;43.596;1.320;2024-02-14T01:16:56;51.15;;;34.85;;
27505;SDS011;14939;43.596;1.320;2024-02-14T01:19:22;51.72;;;36.05;;
27505;SDS011;14939;43.596;1.320;2024-02-14T01:21:49;51.08;;;35.45;;
27505;SDS011;14939;43.596;1.320;2024-02-14T01:24:15;51.55;;;35.67;;
27505;SDS011;14939;43.596;1.320;2024-02-14T01:26:41;55.15;;;36.20;;
27505;SDS011;14939;43.596;1.320;2024-02-14T01:29:07;51.53;;;36.58;;
27505;SDS011;14939;43.596;1.320;2024-02-14T01:31:33;52.35;;;35.58;;
27505;SDS011;14939;43.596;1.320;2024-02-14T01:33:59;51.17;;;35.85;;
27505;SDS011;14939;43.596;1.320;2024-02-14T01:36:27;45.38;;;32.30;;
27505;SDS011;14939;43.596;1.320;2024-02-14T01:38:53;45.35;;;32.58;;
27505;SDS011;14939;43.596;1.320;2024-02-14T01:41:19;46.35;;;33.72;;
27505;SDS011;14939;43.596;1.320;2024-02-14T01:43:46;45.25;;;31.08;;
27505;SDS011;14939;43.596;1.320;2024-02-14T01:46:12;44.72;;;30.23;;
27505;SDS011;14939;43.596;1.320;2024-02-14T01:48:38;39.90;;;29.45;;
27505;SDS011;14939;43.596;1.320;2024-02-14T01:51:05;42.33;;;28.88;;
27505;SDS011;14939;43.596;1.320;2024-02-14T01:53:33;40.00;;;28.40;;
27505;SDS011;14939;43.596;1.320;2024-02-14T01:56:01;38.50;;;28.65;;
27505;SDS011;14939;43.596;1.320;2024-02-14T01:58:29;39.90;;;28.80;;
27505;SDS011;14939;43.596;1.320;2024-02-14T02:00:55;40.33;;;28.48;;
27505;SDS011;14939;43.596;1.320;2024-02-14T02:03:23;41.80;;;28.17;;
27505;SDS011;14939;43.596;1.320;2024-02-14T02:05:50;41.28;;;28.33;;
27505;SDS011;14939;43.596;1.320;2024-02-14T02:08:16;36.20;;;27.13;;
27505;SDS011;14939;43.596;1.320;2024-02-14T02:10:42;42.28;;;26.60;;
27505;SDS011;14939;43.596;1.320;2024-02-14T02:13:08;37.88;;;26.35;;
27505;SDS011;14939;43.596;1.320;2024-02-14T02:15:34;35.60;;;25.58;;
27505;SDS011;14939;43.596;1.320;2024-02-14T02:18:00;46.03;;;29.13;;
27505;SDS011;14939;43.596;1.320;2024-02-14T02:20:30;40.20;;;26.50;;
27505;SDS011;14939;43.596;1.320;2024-02-14T02:22:57;36.33;;;26.67;;
27505;SDS011;14939;43.596;1.320;2024-02-14T02:25:23;34.83;;;25.10;;
27505;SDS011;14939;43.596;1.320;2024-02-14T02:27:49;40.33;;;26.50;;
27505;SDS011;14939;43.596;1.320;2024-02-14T02:30:15;39.10;;;27.58;;
27505;SDS011;14939;43.596;1.320;2024-02-14T02:32:41;37.50;;;26.05;;
27505;SDS011;14939;43.596;1.320;2024-02-14T02:35:08;36.75;;;24.58;;
27505;SDS011;14939;43.596;1.320;2024-02-14T02:37:34;36.35;;;25.25;;
27505;SDS011;14939;43.596;1.320;2024-02-14T02:40:00;33.33;;;23.33;;
27505;SDS011;14939;43.596;1.320;2024-02-14T02:42:26;32.92;;;23.33;;
27505;SDS011;14939;43.596;1.320;2024-02-14T02:44:52;27.80;;;21.92;;
27505;SDS011;14939;43.596;1.320;2024-02-14T02:47:18;33.00;;;22.40;;
27505;SDS011;14939;43.596;1.320;2024-02-14T02:49:44;30.92;;;21.25;;
27505;SDS011;14939;43.596;1.320;2024-02-14T02:52:10;32.03;;;21.33;;
27505;SDS011;14939;43.596;1.320;2024-02-14T02:54:36;30.45;;;21.70;;
27505;SDS011;14939;43.596;1.320;2024-02-14T02:57:02;28.63;;;21.67;;
27505;SDS011;14939;43.596;1.320;2024-02-14T02:59:30;28.40;;;20.00;;
27505;SDS011;14939;43.596;1.320;2024-02-14T03:01:57;28.05;;;20.23;;
27505;SDS011;14939;43.596;1.320;2024-02-14T03:04:24;29.30;;;20.15;;
27505;SDS011;14939;43.596;1.320;2024-02-14T03:06:49;28.52;;;20.15;;
27505;SDS011;14939;43.596;1.320;2024-02-14T03:09:15;32.75;;;20.85;;
27505;SDS011;14939;43.596;1.320;2024-02-14T03:11:45;27.02;;;19.42;;
27505;SDS011;14939;43.596;1.320;2024-02-14T03:14:12;28.02;;;20.48;;
27505;SDS011;14939;43.596;1.320;2024-02-14T03:16:38;30.67;;;20.70;;
27505;SDS011;14939;43.596;1.320;2024-02-14T03:19:04;32.65;;;22.80;;
27505;SDS011;14939;43.596;1.320;2024-02-14T03:21:30;34.72;;;23.48;;
27505;SDS011;14939;43.596;1.320;2024-02-14T03:23:58;29.83;;;21.42;;
27505;SDS011;14939;43.596;1.320;2024-02-14T03:26:23;31.60;;;21.10;;
27505;SDS011;14939;43.596;1.320;2024-02-14T03:28:49;30.42;;;21.60;;
27505;SDS011;14939;43.596;1.320;2024-02-14T03:31:15;35.20;;;22.65;;
27505;SDS011;14939;43.596;1.320;2024-02-14T03:33:41;31.67;;;21.98;;
27505;SDS011;14939;43.596;1.320;2024-02-14T03:36:07;35.80;;;25.08;;
27505;SDS011;14939;43.596;1.320;2024-02-14T03:38:33;30.60;;;22.33;;
27505;SDS011;14939;43.596;1.320;2024-02-14T03:40:59;31.90;;;22.27;;
27505;SDS011;14939;43.596;1.320;2024-02-14T03:43:24;31.85;;;23.65;;
27505;SDS011;14939;43.596;1.320;2024-02-14T03:45:50;30.92;;;21.17;;
27505;SDS011;14939;43.596;1.320;2024-02-14T03:48:16;31.50;;;22.33;;
27505;SDS011;14939;43.596;1.320;2024-02-14T03:50:42;32.47;;;22.73;;
27505;SDS011;14939;43.596;1.320;2024-02-14T03:53:08;30.17;;;22.08;;
27505;SDS011;14939;43.596;1.320;2024-02-14T03:55:36;31.80;;;23.02;;
27505;SDS011;14939;43.596;1.320;2024-02-14T03:58:02;31.20;;;21.90;;
27505;SDS011;14939;43.596;1.320;2024-02-14T04:00:29;28.38;;;20.92;;
27505;SDS011;14939;43.596;1.320;2024-02-14T04:02:55;29.38;;;20.65;;
27505;SDS011;14939;43.596;1.320;2024-02-14T04:05:24;29.27;;;19.90;;
27505;SDS011;14939;43.596;1.320;2024-02-14T04:07:52;50.25;;;21.15;;
27505;SDS011;14939;43.596;1.320;2024-02-14T04:10:19;32.67;;;22.52;;
27505;SDS011;14939;43.596;1.320;2024-02-14T04:12:45;28.08;;;21.10;;
27505;SDS011;14939;43.596;1.320;2024-02-14T04:15:10;30.67;;;20.42;;
27505;SDS011;14939;43.596;1.320;2024-02-14T04:17:36;33.28;;;22.30;;
27505;SDS011;14939;43.596;1.320;2024-02-14T04:20:02;30.85;;;22.02;;
27505;SDS011;14939;43.596;1.320;2024-02-14T04:22:29;31.98;;;21.23;;
27505;SDS011;14939;43.596;1.320;2024-02-14T04:24:55;30.45;;;21.17;;
27505;SDS011;14939;43.596;1.320;2024-02-14T04:27:21;26.98;;;20.60;;
27505;SDS011;14939;43.596;1.320;2024-02-14T04:29:47;33.28;;;21.20;;
27505;SDS011;14939;43.596;1.320;2024-02-14T04:32:13;28.23;;;20.05;;
27505;SDS011;14939;43.596;1.320;2024-02-14T04:34:39;31.58;;;21.02;;
27505;SDS011;14939;43.596;1.320;2024-02-14T04:37:05;26.27;;;19.88;;
27505;SDS011;14939;43.596;1.320;2024-02-14T04:39:35;29.45;;;19.83;;
27505;SDS011;14939;43.596;1.320;2024-02-14T04:42:01;29.55;;;20.75;;
27505;SDS011;14939;43.596;1.320;2024-02-14T04:44:30;30.48;;;20.42;;
27505;SDS011;14939;43.596;1.320;2024-02-14T04:46:57;31.08;;;21.10;;
27505;SDS011;14939;43.596;1.320;2024-02-14T04:49:25;32.30;;;20.73;;
27505;SDS011;14939;43.596;1.320;2024-02-14T04:51:51;26.10;;;19.08;;
27505;SDS011;14939;43.596;1.320;2024-02-14T04:54:17;28.88;;;19.05;;
27505;SDS011;14939;43.596;1.320;2024-02-14T04:56:43;28.15;;;20.48;;
27505;SDS011;14939;43.596;1.320;2024-02-14T04:59:10;30.63;;;20.45;;
27505;SDS011;14939;43.596;1.320;2024-02-14T05:01:36;34.72;;;23.25;;
27505;SDS011;14939;43.596;1.320;2024-02-14T05:04:02;31.38;;;21.63;;
27505;SDS011;14939;43.596;1.320;2024-02-14T05:06:29;33.42;;;20.77;;
27505;SDS011;14939;43.596;1.320;2024-02-14T05:08:55;36.63;;;23.88;;
27505;SDS011;14939;43.596;1.320;2024-02-14T05:11:20;29.83;;;21.05;;
27505;SDS011;14939;43.596;1.320;2024-02-14T05:13:46;26.52;;;19.75;;
27505;SDS011;14939;43.596;1.320;2024-02-14T05:16:12;26.58;;;18.15;;
27505;SDS011;14939;43.596;1.320;2024-02-14T05:18:38;28.90;;;17.45;;
27505;SDS011;14939;43.596;1.320;2024-02-14T05:21:07;27.08;;;18.48;;
27505;SDS011;14939;43.596;1.320;2024-02-14T05:23:33;27.08;;;19.90;;
27505;SDS011;14939;43.596;1.320;2024-02-14T05:26:00;23.88;;;16.33;;
27505;SDS011;14939;43.596;1.320;2024-02-14T05:28:27;25.33;;;16.55;;
27505;SDS011;14939;43.596;1.320;2024-02-14T05:30:53;24.13;;;17.55;;
27505;SDS011;14939;43.596;1.320;2024-02-14T05:33:19;28.52;;;17.73;;
27505;SDS011;14939;43.596;1.320;2024-02-14T05:35:50;23.23;;;16.05;;
27505;SDS011;14939;43.596;1.320;2024-02-14T05:38:16;25.08;;;15.63;;
27505;SDS011;14939;43.596;1.320;2024-02-14T05:40:44;21.35;;;14.90;;
27505;SDS011;14939;43.596;1.320;2024-02-14T05:43:13;24.30;;;15.40;;
27505;SDS011;14939;43.596;1.320;2024-02-14T05:45:39;23.13;;;15.10;;
27505;SDS011;14939;43.596;1.320;2024-02-14T05:48:06;23.70;;;15.80;;
27505;SDS011;14939;43.596;1.320;2024-02-14T05:50:32;23.67;;;15.75;;
27505;SDS011;14939;43.596;1.320;2024-02-14T05:52:58;22.65;;;14.77;;
27505;SDS011;14939;43.596;1.320;2024-02-14T05:55:24;23.63;;;14.50;;
27505;SDS011;14939;43.596;1.320;2024-02-14T05:57:50;20.25;;;12.93;;
27505;SDS011;14939;43.596;1.320;2024-02-14T06:00:17;24.38;;;15.10;;
27505;SDS011;14939;43.596;1.320;2024-02-14T06:02:45;21.88;;;14.40;;
27505;SDS011;14939;43.596;1.320;2024-02-14T06:05:14;25.73;;;15.30;;
27505;SDS011;14939;43.596;1.320;2024-02-14T06:07:41;23.10;;;14.85;;
27505;SDS011;14939;43.596;1.320;2024-02-14T06:10:07;25.08;;;14.38;;
27505;SDS011;14939;43.596;1.320;2024-02-14T06:12:33;30.15;;;16.30;;
27505;SDS011;14939;43.596;1.320;2024-02-14T06:15:00;23.27;;;17.02;;
27505;SDS011;14939;43.596;1.320;2024-02-14T06:17:26;25.27;;;15.93;;
27505;SDS011;14939;43.596;1.320;2024-02-14T06:19:52;29.10;;;17.45;;
27505;SDS011;14939;43.596;1.320;2024-02-14T06:22:18;28.20;;;16.48;;
27505;SDS011;14939;43.596;1.320;2024-02-14T06:24:44;26.30;;;17.15;;
27505;SDS011;14939;43.596;1.320;2024-02-14T06:27:09;26.52;;;16.83;;
27505;SDS011;14939;43.596;1.320;2024-02-14T06:29:36;25.55;;;16.77;;
27505;SDS011;14939;43.596;1.320;2024-02-14T06:32:01;25.15;;;16.83;;
27505;SDS011;14939;43.596;1.320;2024-02-14T06:34:27;24.23;;;17.35;;
27505;SDS011;14939;43.596;1.320;2024-02-14T06:36:53;26.27;;;16.80;;
27505;SDS011;14939;43.596;1.320;2024-02-14T06:39:19;25.95;;;17.13;;
27505;SDS011;14939;43.596;1.320;2024-02-14T06:41:48;29.40;;;18.52;;
27505;SDS011;14939;43.596;1.320;2024-02-14T06:44:14;24.90;;;16.75;;
27505;SDS011;14939;43.596;1.320;2024-02-14T06:46:39;24.60;;;16.75;;
27505;SDS011;14939;43.596;1.320;2024-02-14T06:49:06;25.73;;;17.17;;
27505;SDS011;14939;43.596;1.320;2024-02-14T06:51:32;22.02;;;15.93;;
27505;SDS011;14939;43.596;1.320;2024-02-14T06:53:58;24.48;;;16.30;;
27505;SDS011;14939;43.596;1.320;2024-02-14T06:56:24;28.50;;;17.73;;
27505;SDS011;14939;43.596;1.320;2024-02-14T06:58:49;29.60;;;17.50;;
27505;SDS011;14939;43.596;1.320;2024-02-14T07:01:18;28.73;;;18.98;;
27505;SDS011;14939;43.596;1.320;2024-02-14T07:03:47;28.98;;;17.48;;
27505;SDS011;14939;43.596;1.320;2024-02-14T07:06:13;26.52;;;16.63;;
27505;SDS011;14939;43.596;1.320;2024-02-14T07:08:43;27.95;;;17.45;;
27505;SDS011;14939;43.596;1.320;2024-02-14T07:11:08;25.58;;;17.58;;
27505;SDS011;14939;43.596;1.320;2024-02-14T07:13:34;26.52;;;18.10;;
27505;SDS011;14939;43.596;1.320;2024-02-14T07:16:00;23.60;;;16.70;;
27505;SDS011;14939;43.596;1.320;2024-02-14T07:18:25;27.85;;;17.10;;
27505;SDS011;14939;43.596;1.320;2024-02-14T07:20:51;26.80;;;18.20;;
27505;SDS011;14939;43.596;1.320;2024-02-14T07:23:18;30.70;;;18.52;;
27505;SDS011;14939;43.596;1.320;2024-02-14T07:25:44;26.85;;;16.88;;
27505;SDS011;14939;43.596;1.320;2024-02-14T07:28:10;32.55;;;17.05;;
27505;SDS011;14939;43.596;1.320;2024-02-14T07:30:35;29.80;;;18.77;;
27505;SDS011;14939;43.596;1.320;2024-02-14T07:33:01;29.23;;;19.17;;
27505;SDS011;14939;43.596;1.320;2024-02-14T07:35:27;29.35;;;20.35;;
27505;SDS011;14939;43.596;1.320;2024-02-14T07:37:53;29.90;;;20.40;;
27505;SDS011;14939;43.596;1.320;2024-02-14T07:40:20;26.50;;;18.70;;
27505;SDS011;14939;43.596;1.320;2024-02-14T07:42:46;23.92;;;16.80;;
27505;SDS011;14939;43.596;1.320;2024-02-14T07:45:12;23.95;;;17.15;;
27505;SDS011;14939;43.596;1.320;2024-02-14T07:47:38;25.35;;;17.30;;
27505;SDS011;14939;43.596;1.320;2024-02-14T07:50:05;21.95;;;15.32;;
27505;SDS011;14939;43.596;1.320;2024-02-14T07:52:31;26.05;;;16.45;;
27505;SDS011;14939;43.596;1.320;2024-02-14T07:54:57;26.30;;;15.75;;
27505;SDS011;14939;43.596;1.320;2024-02-14T07:57:22;23.25;;;16.00;;
27505;SDS011;14939;43.596;1.320;2024-02-14T07:59:49;23.73;;;16.13;;
27505;SDS011;14939;43.596;1.320;2024-02-14T08:02:21;28.23;;;17.35;;
27505;SDS011;14939;43.596;1.320;2024-02-14T08:04:47;27.38;;;15.43;;
27505;SDS011;14939;43.596;1.320;2024-02-14T08:07:13;26.00;;;16.55;;
27505;SDS011;14939;43.596;1.320;2024-02-14T08:09:38;24.42;;;15.07;;
27505;SDS011;14939;43.596;1.320;2024-02-14T08:12:05;25.75;;;16.45;;
27505;SDS011;14939;43.596;1.320;2024-02-14T08:14:31;22.67;;;15.32;;
27505;SDS011;14939;43.596;1.320;2024-02-14T08:16:57;27.75;;;15.88;;
27505;SDS011;14939;43.596;1.320;2024-02-14T08:19:23;26.17;;;16.85;;
27505;SDS011;14939;43.596;1.320;2024-02-14T08:21:49;25.58;;;15.98;;
27505;SDS011;14939;43.596;1.320;2024-02-14T08:24:14;28.77;;;16.67;;
27505;SDS011;14939;43.596;1.320;2024-02-14T08:26:40;29.10;;;16.90;;
27505;SDS011;14939;43.596;1.320;2024-02-14T08:29:06;26.83;;;16.95;;
27505;SDS011;14939;43.596;1.320;2024-02-14T08:31:32;25.20;;;16.60;;
27505;SDS011;14939;43.596;1.320;2024-02-14T08:33:57;25.52;;;17.42;;
27505;SDS011;14939;43.596;1.320;2024-02-14T08:36:23;25.65;;;16.77;;
27505;SDS011;14939;43.596;1.320;2024-02-14T08:38:49;27.02;;;17.10;;
27505;SDS011;14939;43.596;1.320;2024-02-14T08:41:15;25.38;;;16.00;;
27505;SDS011;14939;43.596;1.320;2024-02-14T08:43:41;21.98;;;15.38;;
27505;SDS011;14939;43.596;1.320;2024-02-14T08:46:10;18.85;;;13.88;;
27505;SDS011;14939;43.596;1.320;2024-02-14T08:48:36;18.20;;;13.98;;
27505;SDS011;14939;43.596;1.320;2024-02-14T08:51:07;21.45;;;14.40;;
27505;SDS011;14939;43.596;1.320;2024-02-14T08:53:34;17.90;;;13.90;;
27505;SDS011;14939;43.596;1.320;2024-02-14T08:56:01;18.45;;;13.60;;
27505;SDS011;14939;43.596;1.320;2024-02-14T08:58:27;20.92;;;14.00;;
27505;SDS011;14939;43.596;1.320;2024-02-14T09:00:52;18.20;;;12.20;;
27505;SDS011;14939;43.596;1.320;2024-02-14T09:03:18;17.67;;;12.38;;
27505;SDS011;14939;43.596;1.320;2024-02-14T09:05:44;18.25;;;11.32;;
27505;SDS011;14939;43.596;1.320;2024-02-14T09:08:11;17.38;;;11.40;;
27505;SDS011;14939;43.596;1.320;2024-02-14T09:10:37;16.55;;;11.48;;
27505;SDS011;14939;43.596;1.320;2024-02-14T09:13:04;27.23;;;12.32;;
27505;SDS011;14939;43.596;1.320;2024-02-14T09:15:32;40.40;;;13.80;;
27505;SDS011;14939;43.596;1.320;2024-02-14T09:17:58;19.92;;;12.50;;
27505;SDS011;14939;43.596;1.320;2024-02-14T09:20:25;20.00;;;11.82;;
27505;SDS011;14939;43.596;1.320;2024-02-14T09:22:51;19.77;;;13.25;;
27505;SDS011;14939;43.596;1.320;2024-02-14T09:25:18;18.00;;;12.00;;
27505;SDS011;14939;43.596;1.320;2024-02-14T09:27:44;15.95;;;11.07;;
27505;SDS011;14939;43.596;1.320;2024-02-14T09:30:12;17.33;;;12.02;;
27505;SDS011;14939;43.596;1.320;2024-02-14T09:32:38;16.83;;;11.02;;
27505;SDS011;14939;43.596;1.320;2024-02-14T09:35:04;16.40;;;11.50;;
27505;SDS011;14939;43.596;1.320;2024-02-14T09:37:31;17.77;;;11.93;;
27505;SDS011;14939;43.596;1.320;2024-02-14T09:39:57;17.02;;;12.18;;
27505;SDS011;14939;43.596;1.320;2024-02-14T09:42:47;16.35;;;11.88;;
27505;SDS011;14939;43.596;1.320;2024-02-14T09:45:15;19.13;;;11.73;;
27505;SDS011;14939;43.596;1.320;2024-02-14T09:47:40;15.90;;;10.30;;
27505;SDS011;14939;43.596;1.320;2024-02-14T09:50:07;17.23;;;10.55;;
27505;SDS011;14939;43.596;1.320;2024-02-14T09:52:34;17.33;;;10.95;;
27505;SDS011;14939;43.596;1.320;2024-02-14T09:55:03;14.88;;;11.25;;
27505;SDS011;14939;43.596;1.320;2024-02-14T09:57:32;14.43;;;10.85;;
27505;SDS011;14939;43.596;1.320;2024-02-14T09:59:58;17.92;;;10.57;;
27505;SDS011;14939;43.596;1.320;2024-02-14T10:02:26;17.88;;;10.88;;
27505;SDS011;14939;43.596;1.320;2024-02-14T10:04:51;15.63;;;10.50;;
27505;SDS011;14939;43.596;1.320;2024-02-14T10:07:17;13.73;;;9.77;;
27505;SDS011;14939;43.596;1.320;2024-02-14T10:09:44;12.77;;;8.93;;
27505;SDS011;14939;43.596;1.320;2024-02-14T10:12:10;12.65;;;8.07;;
27505;SDS011;14939;43.596;1.320;2024-02-14T10:14:36;13.02;;;7.75;;
27505;SDS011;14939;43.596;1.320;2024-02-14T10:17:02;11.82;;;7.05;;
27505;SDS011;14939;43.596;1.320;2024-02-14T10:19:32;12.63;;;7.05;;
27505;SDS011;14939;43.596;1.320;2024-02-14T10:21:59;11.75;;;7.40;;
27505;SDS011;14939;43.596;1.320;2024-02-14T10:24:27;15.23;;;7.60;;
27505;SDS011;14939;43.596;1.320;2024-02-14T10:26:53;10.50;;;6.13;;
27505;SDS011;14939;43.596;1.320;2024-02-14T10:29:19;9.95;;;6.50;;
27505;SDS011;14939;43.596;1.320;2024-02-14T10:31:45;12.15;;;6.15;;
27505;SDS011;14939;43.596;1.320;2024-02-14T10:34:11;9.82;;;5.82;;
27505;SDS011;14939;43.596;1.320;2024-02-14T10:36:37;12.23;;;6.03;;
27505;SDS011;14939;43.596;1.320;2024-02-14T10:39:05;10.25;;;5.80;;
27505;SDS011;14939;43.596;1.320;2024-02-14T10:41:33;11.05;;;6.32;;
27505;SDS011;14939;43.596;1.320;2024-02-14T10:44:03;8.68;;;5.90;;
27505;SDS011;14939;43.596;1.320;2024-02-14T10:46:33;9.32;;;5.82;;
27505;SDS011;14939;43.596;1.320;2024-02-14T10:49:04;22.02;;;6.20;;
27505;SDS011;14939;43.596;1.320;2024-02-14T10:51:32;8.93;;;5.75;;
27505;SDS011;14939;43.596;1.320;2024-02-14T10:54:33;10.35;;;5.90;;
27505;SDS011;14939;43.596;1.320;2024-02-14T10:56:52;12.13;;;6.13;;
27505;SDS011;14939;43.596;1.320;2024-02-14T10:59:23;9.23;;;5.95;;
27505;SDS011;14939;43.596;1.320;2024-02-14T11:01:50;9.88;;;6.30;;
27505;SDS011;14939;43.596;1.320;2024-02-14T11:04:16;14.45;;;6.03;;
27505;SDS011;14939;43.596;1.320;2024-02-14T11:06:44;12.75;;;5.93;;
27505;SDS011;14939;43.596;1.320;2024-02-14T11:09:11;12.02;;;6.05;;
27505;SDS011;14939;43.596;1.320;2024-02-14T11:11:38;11.25;;;5.57;;
27505;SDS011;14939;43.596;1.320;2024-02-14T11:14:03;12.85;;;5.85;;
27505;SDS011;14939;43.596;1.320;2024-02-14T11:16:31;7.60;;;5.07;;
27505;SDS011;14939;43.596;1.320;2024-02-14T11:19:08;8.23;;;4.97;;
27505;SDS011;14939;43.596;1.320;2024-02-14T11:21:41;10.35;;;5.45;;
27505;SDS011;14939;43.596;1.320;2024-02-14T11:24:11;9.00;;;5.55;;
27505;SDS011;14939;43.596;1.320;2024-02-14T11:26:48;7.07;;;4.78;;
27505;SDS011;14939;43.596;1.320;2024-02-14T11:29:18;9.60;;;5.40;;
27505;SDS011;14939;43.596;1.320;2024-02-14T11:31:44;12.95;;;4.82;;
27505;SDS011;14939;43.596;1.320;2024-02-14T11:34:13;9.98;;;4.85;;
27505;SDS011;14939;43.596;1.320;2024-02-14T11:36:41;10.55;;;5.00;;
27505;SDS011;14939;43.596;1.320;2024-02-14T11:39:08;11.13;;;5.20;;
27505;SDS011;14939;43.596;1.320;2024-02-14T11:41:34;10.07;;;5.20;;
27505;SDS011;14939;43.596;1.320;2024-02-14T11:44:06;7.07;;;4.20;;
27505;SDS011;14939;43.596;1.320;2024-02-14T11:46:32;7.55;;;3.65;;
27505;SDS011;14939;43.596;1.320;2024-02-14T11:48:59;7.93;;;3.38;;
27505;SDS011;14939;43.596;1.320;2024-02-14T11:51:30;7.13;;;3.35;;
27505;SDS011;14939;43.596;1.320;2024-02-14T11:54:03;4.78;;;2.92;;
27505;SDS011;14939;43.596;1.320;2024-02-14T11:56:32;7.55;;;3.35;;
27505;SDS011;14939;43.596;1.320;2024-02-14T11:59:01;6.43;;;3.63;;
27505;SDS011;14939;43.596;1.320;2024-02-14T12:01:28;5.72;;;3.10;;
27505;SDS011;14939;43.596;1.320;2024-02-14T12:03:58;7.22;;;3.40;;
27505;SDS011;14939;43.596;1.320;2024-02-14T12:06:28;8.23;;;3.20;;
27505;SDS011;14939;43.596;1.320;2024-02-14T12:08:56;6.45;;;3.40;;
27505;SDS011;14939;43.596;1.320;2024-02-14T12:11:26;4.68;;;2.67;;
27505;SDS011;14939;43.596;1.320;2024-02-14T12:13:52;6.57;;;2.90;;
27505;SDS011;14939;43.596;1.320;2024-02-14T12:16:21;8.45;;;3.10;;
27505;SDS011;14939;43.596;1.320;2024-02-14T12:18:47;6.90;;;2.58;;
27505;SDS011;14939;43.596;1.320;2024-02-14T12:21:13;12.98;;;3.47;;
27505;SDS011;14939;43.596;1.320;2024-02-14T12:23:39;10.70;;;3.30;;
27505;SDS011;14939;43.596;1.320;2024-02-14T12:26:05;9.38;;;3.00;;
27505;SDS011;14939;43.596;1.320;2024-02-14T12:28:31;6.30;;;2.38;;
27505;SDS011;14939;43.596;1.320;2024-02-14T12:30:57;6.20;;;2.40;;
27505;SDS011;14939;43.596;1.320;2024-02-14T12:33:27;10.35;;;2.97;;
27505;SDS011;14939;43.596;1.320;2024-02-14T12:35:54;5.25;;;2.33;;
27505;SDS011;14939;43.596;1.320;2024-02-14T12:38:21;6.97;;;2.30;;
27505;SDS011;14939;43.596;1.320;2024-02-14T12:40:48;6.53;;;2.40;;
27505;SDS011;14939;43.596;1.320;2024-02-14T12:43:14;6.00;;;2.40;;
27505;SDS011;14939;43.596;1.320;2024-02-14T12:45:43;6.47;;;2.40;;
27505;SDS011;14939;43.596;1.320;2024-02-14T12:48:09;6.00;;;2.47;;
27505;SDS011;14939;43.596;1.320;2024-02-14T12:50:40;4.75;;;1.90;;
27505;SDS011;14939;43.596;1.320;2024-02-14T12:55:38;3.45;;;1.90;;
27505;SDS011;14939;43.596;1.320;2024-02-14T12:58:04;4.53;;;2.00;;
27505;SDS011;14939;43.596;1.320;2024-02-14T13:00:29;5.60;;;2.20;;
27505;SDS011;14939;43.596;1.320;2024-02-14T13:02:57;2.67;;;1.70;;
27505;SDS011;14939;43.596;1.320;2024-02-14T13:05:23;6.03;;;1.50;;
27505;SDS011;14939;43.596;1.320;2024-02-14T13:07:50;3.45;;;1.67;;
27505;SDS011;14939;43.596;1.320;2024-02-14T13:10:16;4.47;;;1.80;;
27505;SDS011;14939;43.596;1.320;2024-02-14T13:12:43;3.55;;;1.90;;
27505;SDS011;14939;43.596;1.320;2024-02-14T13:15:10;3.20;;;1.40;;
27505;SDS011;14939;43.596;1.320;2024-02-14T13:17:36;4.40;;;1.55;;
27505;SDS011;14939;43.596;1.320;2024-02-14T13:20:01;4.03;;;1.42;;
27505;SDS011;14939;43.596;1.320;2024-02-14T13:22:27;4.00;;;1.92;;
27505;SDS011;14939;43.596;1.320;2024-02-14T13:24:53;4.30;;;1.52;;
27505;SDS011;14939;43.596;1.320;2024-02-14T13:27:18;7.82;;;1.60;;
27505;SDS011;14939;43.596;1.320;2024-02-14T13:29:48;6.53;;;1.50;;
27505;SDS011;14939;43.596;1.320;2024-02-14T13:32:14;2.95;;;1.50;;
27505;SDS011;14939;43.596;1.320;2024-02-14T13:34:40;4.25;;;1.30;;
27505;SDS011;14939;43.596;1.320;2024-02-14T13:37:06;5.00;;;1.60;;
27505;SDS011;14939;43.596;1.320;2024-02-14T13:39:32;4.90;;;1.45;;
27505;SDS011;14939;43.596;1.320;2024-02-14T13:41:58;3.10;;;1.52;;
27505;SDS011;14939;43.596;1.320;2024-02-14T13:44:25;6.97;;;2.00;;
27505;SDS011;14939;43.596;1.320;2024-02-14T13:46:50;3.50;;;1.65;;
27505;SDS011;14939;43.596;1.320;2024-02-14T13:49:18;5.25;;;1.50;;
27505;SDS011;14939;43.596;1.320;2024-02-14T13:51:47;4.72;;;1.40;;
27505;SDS011;14939;43.596;1.320;2024-02-14T13:54:19;3.25;;;1.38;;
27505;SDS011;14939;43.596;1.320;2024-02-14T13:56:46;2.78;;;1.50;;
27505;SDS011;14939;43.596;1.320;2024-02-14T13:59:13;2.53;;;1.50;;
27505;SDS011;14939;43.596;1.320;2024-02-14T14:01:39;3.42;;;1.42;;
27505;SDS011;14939;43.596;1.320;2024-02-14T14:04:05;4.20;;;1.50;;
27505;SDS011;14939;43.596;1.320;2024-02-14T14:06:31;5.07;;;1.40;;
27505;SDS011;14939;43.596;1.320;2024-02-14T14:08:57;2.60;;;1.10;;
27505;SDS011;14939;43.596;1.320;2024-02-14T14:11:24;2.58;;;1.30;;
27505;SDS011;14939;43.596;1.320;2024-02-14T14:13:49;2.80;;;1.40;;
27505;SDS011;14939;43.596;1.320;2024-02-14T14:16:15;6.93;;;1.80;;
27505;SDS011;14939;43.596;1.320;2024-02-14T14:18:41;4.05;;;1.63;;
27505;SDS011;14939;43.596;1.320;2024-02-14T14:21:06;3.55;;;1.58;;
27505;SDS011;14939;43.596;1.320;2024-02-14T14:23:32;3.92;;;1.30;;
27505;SDS011;14939;43.596;1.320;2024-02-14T14:26:01;2.67;;;1.45;;
27505;SDS011;14939;43.596;1.320;2024-02-14T14:28:27;5.82;;;1.50;;